createdAt,value
2022-10-21T00:00:30.117Z,20.80
2022-10-21T00:01:31.886Z,20.10
2022-10-21T00:02:34.026Z,20.20
2022-10-21T00:03:36.889Z,19.70
2022-10-21T00:04:38.677Z,20.07
2022-10-21T00:05:41.209Z,20.80
2022-10-21T00:06:43.236Z,17.80
2022-10-21T00:07:45.263Z,17.90
2022-10-21T00:08:47.357Z,16.23
2022-10-21T00:09:48.935Z,18.07
2022-10-21T00:10:53.762Z,17.30
2022-10-21T00:11:56.910Z,18.07
2022-10-21T00:12:58.519Z,16.33
2022-10-21T00:14:00.190Z,17.03
2022-10-21T00:15:05.008Z,17.63
2022-10-21T00:16:14.191Z,18.57
2022-10-21T00:17:16.071Z,17.40
2022-10-21T00:18:17.929Z,18.43
2022-10-21T00:19:19.552Z,16.57
2022-10-21T00:21:24.065Z,17.87
2022-10-21T00:22:25.762Z,17.53
2022-10-21T00:23:29.304Z,15.13
2022-10-21T00:24:31.079Z,16.17
2022-10-21T00:25:33.927Z,14.63
2022-10-21T00:26:38.561Z,18.30
2022-10-21T00:27:42.578Z,15.20
2022-10-21T00:28:45.617Z,18.90
2022-10-21T00:29:49.053Z,14.77
2022-10-21T00:30:51.065Z,14.77
2022-10-21T00:31:54.660Z,18.43
2022-10-21T00:33:02.075Z,16.37
2022-10-21T00:34:08.150Z,18.03
2022-10-21T00:35:10.081Z,19.37
2022-10-21T00:36:15.827Z,19.27
2022-10-21T00:37:18.550Z,18.90
2022-10-21T00:39:24.374Z,19.10
2022-10-21T00:40:26.002Z,18.80
2022-10-21T00:41:31.277Z,22.70
2022-10-21T00:42:42.170Z,20.97
2022-10-21T00:44:02.474Z,21.90
2022-10-21T00:45:06.972Z,24.60
2022-10-21T00:46:10.645Z,20.77
2022-10-21T00:47:21.799Z,20.87
2022-10-21T00:48:27.374Z,21.60
2022-10-21T00:49:44.597Z,18.63
2022-10-21T00:51:04.110Z,19.47
2022-10-21T00:52:12.117Z,20.17
2022-10-21T00:53:16.045Z,18.80
2022-10-21T00:54:20.765Z,20.00
2022-10-21T00:55:24.154Z,18.53
2022-10-21T00:56:30.790Z,18.87
2022-10-21T00:57:36.841Z,20.17
2022-10-21T00:58:39.879Z,21.10
2022-10-21T00:59:47.329Z,19.27
2022-10-21T01:00:51.485Z,18.73
2022-10-21T01:01:54.496Z,19.70
2022-10-21T01:02:56.640Z,16.80
2022-10-21T01:03:58.644Z,18.63
2022-10-21T01:05:02.616Z,19.03
2022-10-21T01:06:09.856Z,17.23
2022-10-21T01:07:12.649Z,18.10
2022-10-21T01:08:14.284Z,17.50
2022-10-21T01:09:19.290Z,18.20
2022-10-21T01:10:21.012Z,17.90
2022-10-21T01:11:24.499Z,17.07
2022-10-21T01:13:02.364Z,15.90
2022-10-21T01:14:27.082Z,18.07
2022-10-21T01:15:58.122Z,18.57
2022-10-21T01:17:26.274Z,19.20
2022-10-21T01:18:43.747Z,17.07
2022-10-21T01:20:25.793Z,18.47
2022-10-21T01:22:00.200Z,17.97
2022-10-21T01:23:40.775Z,18.00
2022-10-21T01:25:01.397Z,15.60
2022-10-21T01:26:59.013Z,17.17
2022-10-21T01:28:05.520Z,17.57
2022-10-21T01:29:37.992Z,15.70
2022-10-21T01:30:43.784Z,17.13
2022-10-21T01:31:51.770Z,15.70
2022-10-21T01:33:23.642Z,16.43
2022-10-21T01:34:57.392Z,16.97
2022-10-21T01:36:29.016Z,15.93
2022-10-21T01:37:43.218Z,16.93
2022-10-21T01:39:06.884Z,15.80
2022-10-21T01:40:22.352Z,14.67
2022-10-21T01:42:05.315Z,16.03
2022-10-21T01:43:36.327Z,15.70
2022-10-21T01:44:51.111Z,15.00
2022-10-21T01:46:07.306Z,15.17
2022-10-21T01:47:30.386Z,14.67
2022-10-21T01:48:50.422Z,15.03
2022-10-21T01:50:06.383Z,15.13
2022-10-21T01:51:10.205Z,14.60
2022-10-21T01:52:13.509Z,13.70
2022-10-21T01:53:16.431Z,14.17
2022-10-21T01:54:31.582Z,13.00
2022-10-21T01:55:35.733Z,14.30
2022-10-21T01:56:41.539Z,12.17
2022-10-21T01:57:56.352Z,11.87
2022-10-21T01:59:03.189Z,12.60
2022-10-21T02:00:05.535Z,12.20
2022-10-21T02:01:09.058Z,13.13
2022-10-21T02:02:16.211Z,13.20
2022-10-21T02:03:26.928Z,12.30
2022-10-21T02:04:33.972Z,11.70
2022-10-21T02:05:36.506Z,11.70
2022-10-21T02:06:38.215Z,10.70
2022-10-21T02:07:43.038Z,10.57
2022-10-21T02:08:45.298Z,10.40
2022-10-21T02:09:47.139Z,10.13
2022-10-21T02:10:52.714Z,10.37
2022-10-21T02:11:59.970Z,10.77
2022-10-21T02:13:06.128Z,10.60
2022-10-21T02:14:18.342Z,10.57
2022-10-21T02:15:23.544Z,9.80
2022-10-21T02:16:37.805Z,8.53
2022-10-21T02:17:44.717Z,9.37
2022-10-21T02:18:47.272Z,10.20
2022-10-21T02:19:50.389Z,9.50
2022-10-21T02:21:16.796Z,8.57
2022-10-21T02:22:22.716Z,8.07
2022-10-21T02:23:55.110Z,8.63
2022-10-21T02:25:04.782Z,8.60
2022-10-21T02:26:07.692Z,7.60
2022-10-21T02:27:10.781Z,8.47
2022-10-21T02:28:14.130Z,8.53
2022-10-21T02:29:22.301Z,8.10
2022-10-21T02:30:25.080Z,8.00
2022-10-21T02:31:44.285Z,6.33
2022-10-21T02:33:04.257Z,7.20
2022-10-21T02:34:27.952Z,7.30
2022-10-21T02:35:43.126Z,7.67
2022-10-21T02:36:53.956Z,7.53
2022-10-21T02:38:01.970Z,7.53
2022-10-21T02:39:11.821Z,7.73
2022-10-21T02:40:20.699Z,6.80
2022-10-21T02:41:25.221Z,7.03
2022-10-21T02:42:38.320Z,6.70
2022-10-21T02:43:47.161Z,7.27
2022-10-21T02:44:52.396Z,7.70
2022-10-21T02:45:59.778Z,7.03
2022-10-21T02:47:03.651Z,6.90
2022-10-21T02:48:06.592Z,6.63
2022-10-21T02:49:09.357Z,6.50
2022-10-21T02:50:11.023Z,6.00
2022-10-21T02:51:15.388Z,6.27
2022-10-21T02:52:18.671Z,6.40
2022-10-21T02:53:20.273Z,6.30
2022-10-21T02:54:22.122Z,5.20
2022-10-21T02:55:25.532Z,6.27
2022-10-21T02:56:27.734Z,6.43
2022-10-21T02:57:29.852Z,5.80
2022-10-21T02:58:33.380Z,5.47
2022-10-21T02:59:36.824Z,5.80
2022-10-21T03:00:39.742Z,5.60
2022-10-21T03:01:41.422Z,5.37
2022-10-21T03:02:43.066Z,6.10
2022-10-21T03:03:45.674Z,6.13
2022-10-21T03:04:48.754Z,5.30
2022-10-21T03:05:52.964Z,5.43
2022-10-21T03:06:54.733Z,6.03
2022-10-21T03:07:57.550Z,5.20
2022-10-21T03:08:59.456Z,5.73
2022-10-21T03:10:02.429Z,6.10
2022-10-21T03:11:04.983Z,6.20
2022-10-21T03:12:06.817Z,5.53
2022-10-21T03:13:08.912Z,5.57
2022-10-21T03:14:10.774Z,4.97
2022-10-21T03:15:12.644Z,5.73
2022-10-21T03:16:14.281Z,4.93
2022-10-21T03:17:16.009Z,5.63
2022-10-21T03:18:18.687Z,4.47
2022-10-21T03:19:21.793Z,5.67
2022-10-21T03:20:24.992Z,5.03
2022-10-21T03:21:29.023Z,6.00
2022-10-21T03:22:30.617Z,5.73
2022-10-21T03:23:32.888Z,5.07
2022-10-21T03:24:34.615Z,5.57
2022-10-21T03:25:36.686Z,5.17
2022-10-21T03:26:38.679Z,4.40
2022-10-21T03:27:41.735Z,4.40
2022-10-21T03:28:43.547Z,4.70
2022-10-21T03:29:45.733Z,5.27
2022-10-21T03:30:47.879Z,5.37
2022-10-21T03:31:51.877Z,5.03
2022-10-21T03:32:55.206Z,4.60
2022-10-21T03:33:57.087Z,4.80
2022-10-21T03:34:59.169Z,5.30
2022-10-21T03:36:01.341Z,4.70
2022-10-21T03:37:04.843Z,5.17
2022-10-21T03:38:06.820Z,5.33
2022-10-21T03:39:10.557Z,5.30
2022-10-21T03:40:12.597Z,4.47
2022-10-21T03:41:14.308Z,4.33
2022-10-21T03:42:17.055Z,5.13
2022-10-21T03:43:18.756Z,5.47
2022-10-21T03:44:20.633Z,4.77
2022-10-21T03:45:22.176Z,4.50
2022-10-21T03:46:23.800Z,4.80
2022-10-21T03:47:25.363Z,5.07
2022-10-21T03:48:26.928Z,4.70
2022-10-21T03:49:28.833Z,5.23
2022-10-21T03:50:30.878Z,5.20
2022-10-21T03:51:32.864Z,4.50
2022-10-21T03:52:36.159Z,4.93
2022-10-21T03:53:43.378Z,5.70
2022-10-21T03:54:45.380Z,5.20
2022-10-21T03:55:47.064Z,5.27
2022-10-21T03:56:50.360Z,4.77
2022-10-21T03:57:53.943Z,5.30
2022-10-21T03:58:58.776Z,5.70
2022-10-21T04:00:00.631Z,5.80
2022-10-21T04:01:03.919Z,5.97
2022-10-21T04:02:07.031Z,6.00
2022-10-21T04:03:10.111Z,5.43
2022-10-21T04:04:11.795Z,6.00
2022-10-21T04:05:13.547Z,6.07
2022-10-21T04:06:16.346Z,6.60
2022-10-21T04:07:18.053Z,6.00
2022-10-21T04:08:19.733Z,6.40
2022-10-21T04:09:21.376Z,6.23
2022-10-21T04:10:22.888Z,6.63
2022-10-21T04:11:24.718Z,5.90
2022-10-21T04:12:27.082Z,6.67
2022-10-21T04:13:28.909Z,5.53
2022-10-21T04:14:30.653Z,5.87
2022-10-21T04:15:32.282Z,5.80
2022-10-21T04:16:34.403Z,5.70
2022-10-21T04:17:35.998Z,5.50
2022-10-21T04:18:37.937Z,5.30
2022-10-21T04:19:40.492Z,6.40
2022-10-21T04:20:44.492Z,6.17
2022-10-21T04:21:46.652Z,5.90
2022-10-21T04:22:48.495Z,5.60
2022-10-21T04:23:50.019Z,6.57
2022-10-21T04:24:51.920Z,6.20
2022-10-21T04:25:53.914Z,5.40
2022-10-21T04:26:55.629Z,6.07
2022-10-21T04:27:57.528Z,5.70
2022-10-21T04:29:00.051Z,5.43
2022-10-21T04:30:02.557Z,6.07
2022-10-21T04:31:07.178Z,6.23
2022-10-21T04:32:09.660Z,5.90
2022-10-21T04:33:12.713Z,5.63
2022-10-21T04:34:15.041Z,5.30
2022-10-21T04:35:20.486Z,6.00
2022-10-21T04:36:23.955Z,6.00
2022-10-21T04:37:25.579Z,6.37
2022-10-21T04:38:27.676Z,5.80
2022-10-21T04:39:30.008Z,6.40
2022-10-21T04:40:31.757Z,6.13
2022-10-21T04:41:33.913Z,5.40
2022-10-21T04:42:36.769Z,5.50
2022-10-21T04:43:38.737Z,6.53
2022-10-21T04:44:40.487Z,5.37
2022-10-21T04:45:42.253Z,6.43
2022-10-21T04:46:43.962Z,5.67
2022-10-21T04:47:45.428Z,6.53
2022-10-21T04:48:47.097Z,6.20
2022-10-21T04:49:48.716Z,6.27
2022-10-21T04:50:52.551Z,8.10
2022-10-21T04:51:55.261Z,7.70
2022-10-21T04:52:57.234Z,7.90
2022-10-21T04:53:58.839Z,9.23
2022-10-21T04:55:00.783Z,8.43
2022-10-21T04:56:02.729Z,9.27
2022-10-21T04:57:04.730Z,9.33
2022-10-21T04:58:07.322Z,8.67
2022-10-21T04:59:09.738Z,8.60
2022-10-21T05:00:12.035Z,8.70
2022-10-21T05:01:13.762Z,7.97
2022-10-21T05:02:17.749Z,8.10
2022-10-21T05:03:22.310Z,7.80
2022-10-21T05:04:25.323Z,7.40
2022-10-21T05:05:26.835Z,8.10
2022-10-21T05:06:28.754Z,6.93
2022-10-21T05:07:30.321Z,6.90
2022-10-21T05:08:33.249Z,9.47
2022-10-21T05:09:35.733Z,8.40
2022-10-21T05:10:37.698Z,8.73
2022-10-21T05:11:39.557Z,9.10
2022-10-21T05:12:41.619Z,10.70
2022-10-21T05:13:43.389Z,8.37
2022-10-21T05:14:44.994Z,8.73
2022-10-21T05:15:47.087Z,9.40
2022-10-21T05:16:48.839Z,10.43
2022-10-21T05:17:51.630Z,10.13
2022-10-21T05:18:54.714Z,9.80
2022-10-21T05:19:56.614Z,9.10
2022-10-21T05:21:00.154Z,10.37
2022-10-21T05:22:01.978Z,10.13
2022-10-21T05:23:03.703Z,10.77
2022-10-21T05:24:05.849Z,11.77
2022-10-21T05:25:08.521Z,11.40
2022-10-21T05:26:10.176Z,10.53
2022-10-21T05:27:11.936Z,11.80
2022-10-21T05:28:14.945Z,11.53
2022-10-21T05:29:17.689Z,11.67
2022-10-21T05:30:19.375Z,11.17
2022-10-21T05:31:21.276Z,11.43
2022-10-21T05:32:23.210Z,11.40
2022-10-21T05:33:24.763Z,10.07
2022-10-21T05:34:26.389Z,10.17
2022-10-21T05:35:28.986Z,10.83
2022-10-21T05:36:30.826Z,10.60
2022-10-21T05:37:33.885Z,11.03
2022-10-21T05:38:36.968Z,12.13
2022-10-21T05:39:38.927Z,11.77
2022-10-21T05:40:41.097Z,13.33
2022-10-21T05:41:45.489Z,13.40
2022-10-21T05:42:49.543Z,13.57
2022-10-21T05:43:51.247Z,14.60
2022-10-21T05:44:55.189Z,17.03
2022-10-21T05:45:57.782Z,16.73
2022-10-21T05:47:00.059Z,17.47
2022-10-21T05:48:01.661Z,16.80
2022-10-21T05:49:04.054Z,16.87
2022-10-21T05:50:06.420Z,18.80
2022-10-21T05:51:12.112Z,12.20
2022-10-21T05:52:14.242Z,15.03
2022-10-21T05:53:16.883Z,13.53
2022-10-21T05:54:19.006Z,11.47
2022-10-21T05:55:20.987Z,11.40
2022-10-21T05:56:22.595Z,11.90
2022-10-21T05:57:24.880Z,11.60
2022-10-21T05:58:28.701Z,11.00
2022-10-21T05:59:30.896Z,10.20
2022-10-21T06:00:32.666Z,11.50
2022-10-21T06:01:34.928Z,10.60
2022-10-21T06:02:39.134Z,9.47
2022-10-21T06:03:40.939Z,10.30
2022-10-21T06:04:42.805Z,10.73
2022-10-21T06:05:44.639Z,10.70
2022-10-21T06:06:46.949Z,10.80
2022-10-21T06:07:48.857Z,11.37
2022-10-21T06:08:53.637Z,10.23
2022-10-21T06:09:55.519Z,11.00
2022-10-21T06:11:11.230Z,11.93
2022-10-21T06:12:13.097Z,11.00
2022-10-21T06:13:15.146Z,12.33
2022-10-21T06:14:19.883Z,10.73
2022-10-21T06:15:21.877Z,12.13
2022-10-21T06:16:24.901Z,10.00
2022-10-21T06:17:26.481Z,10.07
2022-10-21T06:18:30.392Z,10.90
2022-10-21T06:19:33.687Z,16.53
2022-10-21T06:20:38.816Z,15.37
2022-10-21T06:21:40.592Z,21.00
2022-10-21T06:22:42.259Z,14.00
2022-10-21T06:23:44.220Z,12.13
2022-10-21T06:24:46.930Z,11.50
2022-10-21T06:26:07.045Z,13.17
2022-10-21T06:27:11.160Z,13.57
2022-10-21T06:28:12.767Z,12.03
2022-10-21T06:29:16.068Z,12.27
2022-10-21T06:30:17.720Z,9.60
2022-10-21T06:31:21.739Z,11.40
2022-10-21T06:32:23.677Z,10.93
2022-10-21T06:33:27.340Z,9.63
2022-10-21T06:34:29.386Z,9.97
2022-10-21T06:35:31.068Z,11.80
2022-10-21T06:36:33.314Z,10.40
2022-10-21T06:37:35.101Z,10.73
2022-10-21T06:38:37.905Z,9.73
2022-10-21T06:39:40.924Z,9.80
2022-10-21T06:40:43.104Z,8.87
2022-10-21T06:41:44.893Z,9.20
2022-10-21T06:42:46.933Z,10.13
2022-10-21T06:43:48.591Z,9.53
2022-10-21T06:44:52.771Z,10.13
2022-10-21T06:46:04.447Z,9.77
2022-10-21T06:47:07.604Z,9.70
2022-10-21T06:48:13.638Z,10.40
2022-10-21T06:49:15.337Z,10.43
2022-10-21T06:50:18.209Z,11.60
2022-10-21T06:51:22.377Z,10.00
2022-10-21T06:53:28.061Z,9.63
2022-10-21T06:54:30.548Z,10.57
2022-10-21T06:55:32.342Z,11.43
2022-10-21T06:56:36.405Z,10.33
2022-10-21T06:57:38.516Z,11.73
2022-10-21T06:58:44.787Z,11.30
2022-10-21T06:59:47.832Z,10.50
2022-10-21T07:00:50.190Z,9.70
2022-10-21T07:02:00.618Z,10.63
2022-10-21T07:03:03.168Z,10.77
2022-10-21T07:04:07.170Z,11.70
2022-10-21T07:05:09.383Z,11.80
2022-10-21T07:06:11.027Z,11.27
2022-10-21T07:07:13.367Z,10.23
2022-10-21T07:08:15.108Z,10.67
2022-10-21T07:09:19.553Z,9.87
2022-10-21T07:10:21.486Z,9.63
2022-10-21T07:11:23.393Z,10.10
2022-10-21T07:12:26.897Z,9.13
2022-10-21T07:13:28.563Z,21.43
2022-10-21T07:14:30.914Z,21.83
2022-10-21T07:15:32.570Z,16.50
2022-10-21T07:16:36.782Z,14.40
2022-10-21T07:17:38.688Z,16.27
2022-10-21T07:18:42.651Z,14.80
2022-10-21T07:19:44.922Z,12.03
2022-10-21T07:20:46.717Z,11.80
2022-10-21T07:21:48.354Z,11.30
2022-10-21T07:22:50.218Z,10.50
2022-10-21T07:23:54.724Z,11.23
2022-10-21T07:24:58.516Z,8.60
2022-10-21T07:26:06.140Z,8.90
2022-10-21T07:27:07.961Z,8.10
2022-10-21T07:28:09.545Z,9.07
2022-10-21T07:29:14.311Z,10.00
2022-10-21T07:30:18.765Z,9.13
2022-10-21T07:31:21.982Z,8.00
2022-10-21T07:32:23.770Z,8.50
2022-10-21T07:33:26.008Z,8.00
2022-10-21T07:34:32.649Z,8.30
2022-10-21T07:35:34.791Z,9.70
2022-10-21T07:36:40.809Z,8.30
2022-10-21T07:37:43.503Z,8.37
2022-10-21T07:38:48.659Z,10.77
2022-10-21T07:39:50.764Z,8.10
2022-10-21T07:40:52.423Z,9.23
2022-10-21T07:41:58.165Z,9.03
2022-10-21T07:43:01.583Z,9.47
2022-10-21T07:44:04.521Z,8.70
2022-10-21T07:45:06.874Z,9.20
2022-10-21T07:46:09.959Z,6.90
2022-10-21T07:47:11.658Z,8.43
2022-10-21T07:48:14.215Z,9.50
2022-10-21T07:49:17.657Z,9.10
2022-10-21T07:50:19.716Z,6.97
2022-10-21T07:51:28.600Z,8.57
2022-10-21T07:52:34.930Z,8.17
2022-10-21T07:53:41.058Z,8.17
2022-10-21T07:54:45.327Z,7.83
2022-10-21T07:55:47.355Z,7.07
2022-10-21T07:56:51.286Z,8.50
2022-10-21T07:57:53.745Z,8.07
2022-10-21T07:58:56.512Z,7.30
2022-10-21T07:59:58.826Z,8.10
2022-10-21T08:01:07.518Z,9.37
2022-10-21T08:02:14.311Z,8.40
2022-10-21T08:03:16.076Z,9.13
2022-10-21T08:04:20.643Z,7.83
2022-10-21T08:05:23.744Z,6.97
2022-10-21T08:06:27.667Z,7.50
2022-10-21T08:07:31.849Z,7.07
2022-10-21T08:08:34.158Z,6.90
2022-10-21T08:09:37.587Z,8.70
2022-10-21T08:10:41.793Z,9.03
2022-10-21T08:11:44.282Z,8.33
2022-10-21T08:12:46.843Z,8.50
2022-10-21T08:13:48.885Z,8.27
2022-10-21T08:14:51.335Z,7.90
2022-10-21T08:15:54.714Z,9.33
2022-10-21T08:16:57.159Z,7.90
2022-10-21T08:17:58.919Z,11.00
2022-10-21T08:19:02.175Z,14.60
2022-10-21T08:20:04.192Z,13.60
2022-10-21T08:21:07.338Z,12.20
2022-10-21T08:22:09.343Z,13.60
2022-10-21T08:23:12.941Z,11.77
2022-10-21T08:24:14.544Z,9.23
2022-10-21T08:25:17.262Z,8.33
2022-10-21T08:26:19.525Z,6.90
2022-10-21T08:27:21.575Z,6.77
2022-10-21T08:28:25.872Z,7.33
2022-10-21T08:29:27.441Z,7.07
2022-10-21T08:30:32.388Z,6.00
2022-10-21T08:31:35.617Z,6.97
2022-10-21T08:32:39.137Z,7.23
2022-10-21T08:33:41.929Z,5.53
2022-10-21T08:34:45.596Z,6.03
2022-10-21T08:35:47.644Z,5.70
2022-10-21T08:36:49.291Z,5.33
2022-10-21T08:37:51.520Z,5.13
2022-10-21T08:38:54.878Z,5.07
2022-10-21T08:39:56.922Z,5.00
2022-10-21T08:41:00.327Z,5.80
2022-10-21T08:42:02.084Z,5.67
2022-10-21T08:43:10.049Z,5.63
2022-10-21T08:44:31.541Z,5.83
2022-10-21T08:45:43.143Z,6.50
2022-10-21T08:46:56.246Z,5.83
2022-10-21T08:48:03.792Z,6.10
2022-10-21T08:49:14.568Z,5.00
2022-10-21T08:50:20.406Z,3.80
2022-10-21T08:51:40.739Z,4.90
2022-10-21T08:52:48.904Z,6.33
2022-10-21T08:53:52.751Z,4.83
2022-10-21T08:55:00.519Z,4.60
2022-10-21T08:56:15.769Z,5.40
2022-10-21T08:57:22.022Z,10.87
2022-10-21T08:58:24.971Z,5.70
2022-10-21T08:59:26.968Z,4.50
2022-10-21T09:00:38.701Z,4.70
2022-10-21T09:01:55.482Z,5.50
2022-10-21T09:03:27.357Z,5.20
2022-10-21T09:04:50.746Z,5.30
2022-10-21T09:06:08.442Z,6.50
2022-10-21T09:07:26.990Z,7.00
2022-10-21T09:08:42.631Z,4.83
2022-10-21T09:09:51.884Z,6.10
2022-10-21T09:11:01.191Z,6.70
2022-10-21T09:12:17.968Z,4.57
2022-10-21T09:13:36.187Z,4.60
2022-10-21T09:15:11.536Z,4.27
2022-10-21T09:16:44.560Z,3.40
2022-10-21T09:18:05.548Z,3.80
2022-10-21T09:19:32.735Z,3.40
2022-10-21T09:20:56.092Z,3.07
2022-10-21T09:22:16.097Z,3.00
2022-10-21T09:24:44.306Z,2.50
2022-10-21T09:26:42.654Z,2.20
2022-10-21T09:27:55.437Z,2.50
2022-10-21T09:29:02.029Z,2.13
2022-10-21T09:30:07.740Z,3.13
2022-10-21T09:31:17.033Z,3.20
2022-10-21T09:32:42.021Z,3.30
2022-10-21T09:34:03.991Z,2.07
2022-10-21T09:35:14.154Z,5.40
2022-10-21T09:36:26.253Z,4.10
2022-10-21T09:37:44.941Z,2.90
2022-10-21T09:38:56.104Z,2.90
2022-10-21T09:40:13.442Z,3.40
2022-10-21T09:41:19.579Z,2.97
2022-10-21T09:42:42.680Z,3.93
2022-10-21T09:43:48.727Z,3.33
2022-10-21T09:44:51.775Z,3.03
2022-10-21T09:45:54.623Z,3.63
2022-10-21T09:46:56.517Z,3.60
2022-10-21T09:48:03.700Z,3.80
2022-10-21T09:49:36.767Z,3.80
2022-10-21T09:50:29.510Z,3.80
2022-10-21T09:51:34.541Z,5.80
2022-10-21T09:52:37.960Z,12.50
2022-10-21T09:53:54.126Z,5.17
2022-10-21T09:54:56.856Z,4.17
2022-10-21T09:56:05.317Z,2.83
2022-10-21T09:57:24.143Z,2.50
2022-10-21T09:58:28.793Z,1.70
2022-10-21T09:59:33.263Z,2.30
2022-10-21T10:00:49.550Z,2.77
2022-10-21T10:01:52.419Z,1.90
2022-10-21T10:02:54.637Z,2.57
2022-10-21T10:03:57.395Z,2.13
2022-10-21T10:05:01.269Z,2.43
2022-10-21T10:06:05.957Z,2.40
2022-10-21T10:07:29.719Z,2.87
2022-10-21T10:08:44.989Z,1.70
2022-10-21T10:09:49.037Z,1.80
2022-10-21T10:10:50.601Z,2.13
2022-10-21T10:12:15.778Z,2.27
2022-10-21T10:13:20.064Z,3.40
2022-10-21T10:14:29.280Z,2.27
2022-10-21T10:15:37.666Z,2.03
2022-10-21T10:16:39.878Z,1.70
2022-10-21T10:17:41.684Z,1.70
2022-10-21T10:18:44.940Z,2.37
2022-10-21T10:20:05.263Z,2.77
2022-10-21T10:21:18.804Z,3.47
2022-10-21T10:22:20.729Z,3.53
2022-10-21T10:23:22.639Z,2.13
2022-10-21T10:24:24.414Z,2.70
2022-10-21T10:25:32.577Z,3.27
2022-10-21T10:26:38.408Z,4.33
2022-10-21T10:27:54.257Z,2.10
2022-10-21T10:29:08.468Z,3.40
2022-10-21T10:30:15.978Z,1.60
2022-10-21T10:31:53.227Z,1.70
2022-10-21T10:32:56.590Z,2.03
2022-10-21T10:34:04.043Z,2.07
2022-10-21T10:35:15.628Z,1.53
2022-10-21T10:36:27.864Z,1.87
2022-10-21T10:37:37.020Z,1.47
2022-10-21T10:38:54.241Z,1.50
2022-10-21T10:39:58.684Z,1.70
2022-10-21T10:49:21.624Z,1.60
2022-10-21T10:50:39.564Z,1.63
2022-10-21T10:51:43.310Z,1.43
2022-10-21T10:52:45.029Z,1.23
2022-10-21T10:54:00.704Z,2.23
2022-10-21T10:55:11.410Z,1.37
2022-10-21T10:56:42.657Z,1.20
2022-10-21T10:58:05.866Z,1.17
2022-10-21T10:59:21.841Z,1.20
2022-10-21T11:00:24.016Z,1.20
2022-10-21T11:01:34.788Z,1.60
2022-10-21T11:02:58.939Z,1.30
2022-10-21T11:04:19.112Z,1.33
2022-10-21T11:05:30.630Z,1.53
2022-10-21T11:06:41.478Z,1.37
2022-10-21T11:07:50.613Z,1.40
2022-10-21T11:08:57.569Z,3.77
2022-10-21T11:10:08.235Z,4.13
2022-10-21T11:11:28.542Z,6.70
2022-10-21T11:12:34.674Z,4.83
2022-10-21T11:13:42.056Z,1.60
2022-10-21T11:14:47.329Z,3.97
2022-10-21T11:16:11.797Z,4.37
2022-10-21T11:17:19.658Z,3.73
2022-10-21T11:18:40.571Z,8.03
2022-10-21T11:19:53.235Z,4.00
2022-10-21T11:21:14.314Z,4.30
2022-10-21T11:22:36.191Z,2.10
2022-10-21T11:23:41.675Z,3.13
2022-10-21T11:24:54.803Z,1.63
2022-10-21T11:26:20.211Z,1.63
2022-10-21T11:27:50.283Z,1.20
2022-10-21T11:29:05.438Z,1.40
2022-10-21T11:30:49.013Z,1.03
2022-10-21T11:32:12.864Z,1.20
2022-10-21T11:33:23.919Z,0.97
2022-10-21T11:34:37.023Z,1.30
2022-10-21T11:35:55.521Z,4.30
2022-10-21T11:37:26.469Z,1.60
2022-10-21T11:38:51.258Z,1.10
2022-10-21T11:40:03.601Z,1.10
2022-10-21T11:41:31.752Z,1.80
2022-10-21T11:42:41.936Z,0.73
2022-10-21T11:43:53.022Z,0.93
2022-10-21T11:45:27.155Z,1.20
2022-10-21T11:46:58.172Z,1.10
2022-10-21T11:48:30.748Z,1.07
2022-10-21T11:49:48.427Z,1.30
2022-10-21T11:51:12.752Z,1.03
2022-10-21T11:52:19.710Z,1.50
2022-10-21T11:53:24.312Z,1.53
2022-10-21T11:55:10.523Z,1.97
2022-10-21T11:56:28.839Z,1.00
2022-10-21T11:57:45.860Z,1.00
2022-10-21T11:58:56.707Z,1.07
2022-10-21T12:00:23.567Z,1.20
2022-10-21T12:01:47.226Z,1.07
2022-10-21T12:03:22.505Z,1.23
2022-10-21T12:04:44.632Z,1.60
2022-10-21T12:05:53.116Z,1.43
2022-10-21T12:07:00.611Z,1.10
2022-10-21T12:08:16.685Z,1.03
2022-10-21T12:09:30.589Z,0.87
2022-10-21T12:10:35.115Z,1.13
2022-10-21T12:11:46.225Z,1.07
2022-10-21T12:12:50.587Z,0.90
2022-10-21T12:13:57.759Z,0.90
2022-10-21T12:15:05.020Z,1.23
2022-10-21T12:16:11.053Z,1.40
2022-10-21T12:17:21.446Z,1.57
2022-10-21T12:18:27.711Z,1.40
2022-10-21T12:19:29.878Z,1.03
2022-10-21T12:20:33.487Z,1.10
2022-10-21T12:21:39.515Z,1.43
2022-10-21T12:22:43.549Z,1.57
2022-10-21T12:23:53.525Z,1.07
2022-10-21T12:25:08.469Z,1.17
2022-10-21T12:26:57.363Z,1.03
2022-10-21T12:28:02.196Z,1.20
2022-10-21T12:29:43.200Z,1.53
2022-10-21T12:31:00.772Z,1.20
2022-10-21T12:32:18.577Z,1.00
2022-10-21T12:33:41.863Z,1.97
2022-10-21T12:34:44.826Z,2.23
2022-10-21T12:35:50.567Z,1.60
2022-10-21T12:36:54.942Z,1.70
2022-10-21T12:38:06.221Z,1.47
2022-10-21T12:39:16.261Z,1.33
2022-10-21T12:40:26.597Z,2.73
2022-10-21T12:41:36.645Z,2.83
2022-10-21T12:42:46.053Z,1.20
2022-10-21T12:44:05.827Z,1.00
2022-10-21T12:45:27.133Z,2.00
2022-10-21T12:46:45.762Z,1.40
2022-10-21T12:47:49.096Z,1.30
2022-10-21T12:48:52.541Z,1.13
2022-10-21T12:50:17.806Z,1.67
2022-10-21T12:51:24.466Z,1.80
2022-10-21T12:52:26.869Z,1.43
2022-10-21T12:53:47.656Z,1.30
2022-10-21T12:55:03.553Z,1.37
2022-10-21T12:56:10.202Z,1.27
2022-10-21T12:57:26.114Z,1.10
2022-10-21T12:58:33.887Z,1.50
2022-10-21T12:59:43.784Z,1.27
2022-10-21T13:01:14.459Z,1.70
2022-10-21T13:02:28.000Z,1.97
2022-10-21T13:03:51.213Z,1.90
2022-10-21T13:04:56.276Z,1.10
2022-10-21T13:06:03.957Z,2.60
2022-10-21T13:07:30.599Z,1.20
2022-10-21T13:08:40.904Z,1.13
2022-10-21T13:09:43.961Z,1.03
2022-10-21T13:11:06.350Z,1.17
2022-10-21T13:12:11.004Z,1.10
2022-10-21T13:13:43.211Z,1.10
2022-10-21T13:14:50.668Z,1.00
2022-10-21T13:15:55.484Z,0.83
2022-10-21T13:17:28.951Z,0.70
2022-10-21T13:18:50.639Z,0.80
2022-10-21T13:20:14.744Z,0.70
2022-10-21T13:21:38.423Z,1.13
2022-10-21T13:22:42.732Z,0.60
2022-10-21T13:23:45.161Z,1.27
2022-10-21T13:24:48.292Z,1.60
2022-10-21T13:26:12.830Z,1.60
2022-10-21T13:28:42.680Z,1.43
2022-10-21T13:29:48.869Z,1.77
2022-10-21T13:30:54.101Z,1.90
2022-10-21T13:32:13.818Z,1.37
2022-10-21T13:33:34.190Z,1.33
2022-10-21T13:34:40.158Z,0.87
2022-10-21T13:35:55.006Z,1.00
2022-10-21T13:36:57.578Z,1.37
2022-10-21T13:38:05.848Z,0.87
2022-10-21T13:39:23.841Z,0.70
2022-10-21T13:40:40.060Z,0.97
2022-10-21T13:41:43.349Z,1.17
2022-10-21T13:42:55.066Z,1.30
2022-10-21T13:44:05.668Z,0.80
2022-10-21T13:45:26.934Z,0.90
2022-10-21T13:46:33.336Z,0.63
2022-10-21T13:47:35.890Z,0.73
2022-10-21T13:48:40.763Z,0.83
2022-10-21T13:49:50.335Z,0.70
2022-10-21T13:50:53.463Z,1.30
2022-10-21T13:51:55.789Z,1.17
2022-10-21T13:53:01.081Z,2.10
2022-10-21T13:54:13.839Z,1.60
2022-10-21T13:55:25.116Z,1.53
2022-10-21T13:56:31.968Z,1.80
2022-10-21T13:57:38.990Z,1.50
2022-10-21T13:58:43.721Z,1.07
2022-10-21T13:59:45.806Z,1.33
2022-10-21T14:00:47.581Z,1.23
2022-10-21T14:01:52.968Z,1.57
2022-10-21T14:03:06.398Z,1.30
2022-10-21T14:04:22.651Z,1.30
2022-10-21T14:05:40.044Z,1.60
2022-10-21T14:06:53.328Z,0.93
2022-10-21T14:07:55.399Z,0.93
2022-10-21T14:09:00.675Z,0.80
2022-10-21T14:10:07.653Z,1.20
2022-10-21T14:11:32.215Z,1.17
2022-10-21T14:12:44.820Z,1.03
2022-10-21T14:13:49.250Z,1.27
2022-10-21T14:14:53.206Z,1.03
2022-10-21T14:15:56.068Z,0.70
2022-10-21T14:17:06.063Z,1.60
2022-10-21T14:18:08.716Z,2.20
2022-10-21T14:19:18.428Z,1.50
2022-10-21T14:20:28.424Z,1.63
2022-10-21T14:21:35.563Z,1.87
2022-10-21T14:22:37.847Z,2.60
2022-10-21T14:23:40.389Z,1.27
2022-10-21T14:24:45.568Z,1.37
2022-10-21T14:25:52.885Z,1.60
2022-10-21T14:26:57.159Z,1.73
2022-10-21T14:28:04.459Z,1.80
2022-10-21T14:29:07.662Z,1.73
2022-10-21T14:30:18.136Z,2.60
2022-10-21T14:31:20.159Z,1.90
2022-10-21T14:32:26.466Z,1.80
2022-10-21T14:33:31.283Z,1.67
2022-10-21T14:34:35.946Z,2.97
2022-10-21T14:35:37.978Z,2.10
2022-10-21T14:37:01.117Z,2.40
2022-10-21T14:38:05.731Z,2.70
2022-10-21T14:39:20.728Z,2.00
2022-10-21T14:40:37.146Z,2.30
2022-10-21T14:41:45.302Z,2.30
2022-10-21T14:42:52.461Z,2.70
2022-10-21T14:43:59.130Z,1.47
2022-10-21T14:45:04.751Z,1.47
2022-10-21T14:46:09.241Z,1.70
2022-10-21T14:47:27.605Z,1.83
2022-10-21T14:48:33.497Z,2.13
2022-10-21T14:49:46.573Z,2.80
2022-10-21T14:50:54.842Z,1.40
2022-10-21T14:52:02.893Z,3.10
2022-10-21T14:53:18.539Z,1.80
2022-10-21T14:54:32.894Z,3.80
2022-10-21T14:55:34.543Z,8.57
2022-10-21T14:56:40.801Z,3.27
2022-10-21T14:57:53.532Z,2.40
2022-10-21T14:59:00.130Z,1.70
2022-10-21T15:00:10.000Z,1.70
2022-10-21T15:01:19.895Z,1.37
2022-10-21T15:02:37.879Z,1.47
2022-10-21T15:03:44.200Z,1.30
2022-10-21T15:04:59.203Z,1.00
2022-10-21T15:06:10.398Z,1.17
2022-10-21T15:07:29.538Z,1.63
2022-10-21T15:08:34.598Z,1.13